Time;durP1;ratioP1;P1;durP2;ratioP2;P2;SDS_P1;SDS_P2;PMS_P1;PMS_P2;Temp;Humidity;BMP_temperature;BMP_pressure;BME280_temperature;BME280_humidity;BME280_pressure;Samples;Min_cycle;Max_cycle;Signal;HPM_P1;HPM_P2
2022/08/10 00:00:21;;;;;;;11.52;3.33;;;;;;;16.22;82.11;102486.13;5074020;28;20036;-74
2022/08/10 00:02:47;;;;;;;12.55;3.00;;;;;;;16.16;81.78;102484.72;5054206;28;20433;-74
2022/08/10 00:05:13;;;;;;;9.40;3.40;;;;;;;16.15;82.41;102484.84;5052891;28;20025;-74
2022/08/10 00:07:38;;;;;;;7.38;2.65;;;;;;;16.13;82.06;102487.66;5054149;28;20039;-74
2022/08/10 00:10:04;;;;;;;9.95;3.22;;;;;;;16.09;81.32;102483.41;5053768;28;20032;-74
2022/08/10 00:12:29;;;;;;;7.80;3.05;;;;;;;16.04;81.63;102483.75;5054015;28;20029;-74
2022/08/10 00:14:55;;;;;;;7.55;2.95;;;;;;;16.02;81.69;102485.72;5053862;28;20021;-74
2022/08/10 00:17:20;;;;;;;8.45;3.08;;;;;;;15.99;81.95;102483.22;5053933;28;20431;-74
2022/08/10 00:19:45;;;;;;;8.00;3.17;;;;;;;15.99;82.04;102480.50;5053757;28;20035;-74
2022/08/10 00:22:11;;;;;;;8.30;3.15;;;;;;;15.97;82.40;102479.72;5053886;28;20033;-74
2022/08/10 00:24:36;;;;;;;7.97;3.10;;;;;;;15.95;82.64;102475.41;5052360;28;20469;-74
2022/08/10 00:27:02;;;;;;;10.55;3.55;;;;;;;15.89;82.59;102474.84;5053767;28;20059;-74
2022/08/10 00:29:27;;;;;;;8.10;3.50;;;;;;;15.89;82.58;102471.28;5052284;28;20055;-74
2022/08/10 00:31:52;;;;;;;11.27;3.78;;;;;;;15.87;82.62;102462.38;5072024;28;20040;-74
2022/08/10 00:34:18;;;;;;;8.40;3.40;;;;;;;15.86;82.78;102463.38;5073497;28;20115;-74
2022/08/10 00:36:43;;;;;;;7.95;3.20;;;;;;;15.85;82.60;102461.63;5072361;28;20477;-74
2022/08/10 00:39:08;;;;;;;12.45;3.67;;;;;;;15.82;82.50;102462.69;5073362;28;20024;-74
2022/08/10 00:41:34;;;;;;;10.60;3.20;;;;;;;15.81;82.43;102462.81;5073400;28;20387;-74
2022/08/10 00:43:59;;;;;;;8.57;3.30;;;;;;;15.81;82.91;102463.69;5073378;28;20027;-74
2022/08/10 00:46:24;;;;;;;10.23;3.33;;;;;;;15.81;83.12;102460.09;5073220;28;20055;-74
2022/08/10 00:48:49;;;;;;;10.52;3.13;;;;;;;15.75;82.36;102455.06;5073348;28;20024;-74
2022/08/10 00:51:15;;;;;;;9.15;3.15;;;;;;;15.78;82.46;102471.13;5071446;28;20078;-74
2022/08/10 00:53:40;;;;;;;10.82;3.65;;;;;;;15.73;82.75;102456.03;5071549;28;20399;-74
2022/08/10 00:56:06;;;;;;;10.90;3.53;;;;;;;15.72;82.21;102456.16;5073136;28;20024;-74
2022/08/10 00:58:31;;;;;;;15.68;3.67;;;;;;;15.69;82.86;102451.81;5073130;28;20126;-74
2022/08/10 01:00:57;;;;;;;8.00;3.47;;;;;;;15.69;82.41;102451.81;5073204;28;20468;-72
2022/08/10 01:03:22;;;;;;;11.27;3.40;;;;;;;15.68;83.11;102455.50;5073402;28;20024;-72
2022/08/10 01:06:14;;;;;;;8.98;3.08;;;;;;;15.64;82.80;102459.41;5073054;28;20028;-72
2022/08/10 01:08:50;;;;;;;12.73;4.03;;;;;;;15.60;82.55;102463.28;5072968;28;20461;-72
2022/08/10 01:11:34;;;;;;;11.85;3.47;;;;;;;15.59;82.77;102453.41;5072866;28;20020;-72
2022/08/10 01:14:11;;;;;;;11.32;3.03;;;;;;;15.58;82.78;102453.53;5072672;28;20472;-72
2022/08/10 01:16:47;;;;;;;10.60;3.88;;;;;;;15.55;82.94;102449.22;5072503;28;20025;-72
2022/08/10 01:19:38;;;;;;;12.43;4.03;;;;;;;15.54;82.88;102444.75;5071397;28;20123;-72
2022/08/10 01:22:30;;;;;;;8.40;3.42;;;;;;;15.53;82.60;102443.91;5071579;28;20392;-72
2022/08/10 01:25:30;;;;;;;11.60;3.63;;;;;;;15.53;82.95;102452.03;5070993;28;20472;-72
2022/08/10 01:28:26;;;;;;;15.88;3.83;;;;;;;15.53;82.62;102443.00;5072641;28;20392;-72
2022/08/10 01:30:54;;;;;;;11.07;3.53;;;;;;;15.49;83.31;102445.09;5071939;28;20488;-72
2022/08/10 01:33:29;;;;;;;12.38;3.90;;;;;;;15.50;83.52;102454.06;5071054;28;20031;-72
2022/08/10 01:36:07;;;;;;;7.93;3.40;;;;;;;15.45;83.57;102443.53;5072510;28;20033;-72
2022/08/10 01:38:37;;;;;;;11.57;3.80;;;;;;;15.49;83.39;102444.19;5071179;28;20884;-72
2022/08/10 01:41:08;;;;;;;9.93;3.50;;;;;;;15.46;83.79;102450.72;5071004;28;20063;-72
2022/08/10 01:43:39;;;;;;;13.10;3.65;;;;;;;15.45;83.45;102443.53;5071043;28;20020;-72
2022/08/10 01:46:07;;;;;;;10.93;3.65;;;;;;;15.45;83.53;102443.53;5072261;28;20480;-72
2022/08/10 01:48:41;;;;;;;14.05;3.28;;;;;;;15.43;83.64;102450.91;5072316;28;20039;-72
2022/08/10 01:51:09;;;;;;;10.45;3.40;;;;;;;15.41;83.57;102452.84;5070934;28;20433;-72
2022/08/10 01:53:50;;;;;;;12.23;4.05;;;;;;;15.40;83.46;102452.97;5070921;28;20491;-72
2022/08/10 01:56:18;;;;;;;11.57;3.60;;;;;;;15.37;83.88;102448.63;5071970;28;20032;-72
2022/08/10 01:58:47;;;;;;;8.60;3.30;;;;;;;15.34;83.87;102451.53;5070353;28;20119;-72
2022/08/10 02:01:15;;;;;;;10.10;3.90;;;;;;;15.30;83.70;102444.59;5070694;28;20040;-72
2022/08/10 02:03:43;;;;;;;10.65;3.75;;;;;;;15.28;84.33;102447.41;5069943;28;20031;-72
2022/08/10 02:06:11;;;;;;;10.18;3.75;;;;;;;15.27;83.97;102451.09;5070807;28;20064;-72
2022/08/10 02:08:37;;;;;;;7.80;3.15;;;;;;;15.26;83.79;102451.19;5071895;28;20031;-72
2022/08/10 02:11:04;;;;;;;12.32;3.90;;;;;;;15.25;84.33;102453.03;5071940;28;20044;-72
2022/08/10 02:13:31;;;;;;;11.55;3.67;;;;;;;15.22;84.11;102453.22;5070585;28;20132;-72
2022/08/10 02:16:00;;;;;;;15.70;4.22;;;;;;;15.20;84.23;102452.47;5070653;28;20024;-72
2022/08/10 02:18:27;;;;;;;7.22;3.00;;;;;;;15.18;84.26;102447.16;5070659;28;20036;-72
2022/08/10 02:20:54;;;;;;;10.82;3.80;;;;;;;15.18;84.49;102449.88;5071868;28;20020;-72
2022/08/10 02:23:30;;;;;;;11.90;3.47;;;;;;;15.18;83.66;102438.16;5071770;28;20020;-72
2022/08/10 02:25:58;;;;;;;9.90;3.60;;;;;;;15.14;84.69;102433.91;5070541;28;20024;-72
2022/08/10 02:28:25;;;;;;;10.30;3.80;;;;;;;15.11;84.35;102429.59;5071698;28;20068;-72
2022/08/10 02:30:54;;;;;;;10.98;3.83;;;;;;;15.10;83.88;102432.41;5071419;28;20041;-72
2022/08/10 02:33:22;;;;;;;12.57;4.20;;;;;;;15.07;84.67;102438.03;5071625;28;20032;-73
2022/08/10 02:35:50;;;;;;;11.77;3.97;;;;;;;15.07;84.80;102433.47;5071794;28;20024;-73
2022/08/10 02:38:22;;;;;;;10.70;3.92;;;;;;;15.05;84.43;102438.09;5071798;28;20056;-73
2022/08/10 02:40:55;;;;;;;9.68;3.67;;;;;;;15.05;84.55;102437.25;5071693;28;20024;-73
2022/08/10 02:43:30;;;;;;;13.13;4.38;;;;;;;15.01;84.69;102440.16;5071731;28;20451;-73
2022/08/10 02:46:02;;;;;;;10.85;4.00;;;;;;;14.98;85.08;102440.38;5071665;28;20016;-73
2022/08/10 02:48:38;;;;;;;13.55;4.20;;;;;;;14.99;85.10;102441.22;5070151;28;20052;-73
2022/08/10 02:51:10;;;;;;;11.35;4.22;;;;;;;14.96;85.55;102436.03;5071678;28;20486;-73
2022/08/10 02:53:44;;;;;;;11.73;3.63;;;;;;;14.95;85.05;102432.47;5070259;28;20029;-73
2022/08/10 02:56:15;;;;;;;13.57;4.30;;;;;;;14.92;85.02;102424.53;5070213;28;20442;-73
2022/08/10 02:58:43;;;;;;;9.32;3.55;;;;;;;14.90;85.29;102423.75;5071410;28;20025;-73
2022/08/10 03:01:16;;;;;;;11.35;4.07;;;;;;;14.90;85.17;102420.19;5071308;28;20040;-73
2022/08/10 03:03:50;;;;;;;11.10;4.35;;;;;;;14.85;84.81;102417.81;5070259;28;20021;-73
2022/08/10 03:06:22;;;;;;;14.80;4.63;;;;;;;14.84;85.03;102422.31;5071556;28;20035;-73
2022/08/10 03:08:48;;;;;;;11.63;4.32;;;;;;;14.81;85.64;102417.13;5071470;28;20399;-73
2022/08/10 03:11:34;;;;;;;14.43;4.40;;;;;;;14.82;85.04;102415.31;5069995;28;20025;-73
2022/08/10 03:14:00;;;;;;;12.05;4.65;;;;;;;14.75;85.69;102417.53;5071337;28;20107;-73
2022/08/10 03:16:28;;;;;;;12.88;4.47;;;;;;;14.74;85.47;102414.94;5074467;28;20032;-73
2022/08/10 03:18:56;;;;;;;15.38;4.95;;;;;;;14.71;85.87;102413.28;5075022;28;20123;-73
2022/08/10 03:21:23;;;;;;;13.65;4.13;;;;;;;14.71;85.31;102407.88;5073757;28;20024;-73
2022/08/10 03:23:50;;;;;;;15.82;5.18;;;;;;;14.70;85.48;102413.38;5073495;28;20115;-73
2022/08/10 03:26:16;;;;;;;15.40;4.97;;;;;;;14.67;85.86;102411.75;5074806;28;20070;-73
2022/08/10 03:28:42;;;;;;;17.00;5.35;;;;;;;14.65;85.63;102406.44;5074923;28;20020;-73
2022/08/10 03:31:08;;;;;;;14.63;5.05;;;;;;;14.64;85.72;102403.84;5074306;28;20048;-73
2022/08/10 03:33:38;;;;;;;14.05;4.50;;;;;;;14.62;85.53;102412.06;5074720;28;20070;-73
2022/08/10 03:36:05;;;;;;;;;;;;;;;14.68;83.65;102406.25;5073934;28;20154;-73
2022/08/10 03:38:30;;;;;;;12.75;4.80;;;;;;;14.61;85.29;102410.34;5074748;28;20288;-73
2022/08/10 03:41:00;;;;;;;13.88;4.68;;;;;;;14.59;85.93;102403.25;5074561;28;20021;-73
2022/08/10 03:43:26;;;;;;;11.50;4.20;;;;;;;14.57;85.87;102410.59;5074547;28;20495;-73
2022/08/10 03:45:54;;;;;;;16.45;5.05;;;;;;;14.54;85.79;102414.38;5074539;28;20028;-73
2022/08/10 03:48:21;;;;;;;15.23;5.30;;;;;;;14.51;86.21;102420.84;5074532;28;20484;-73
2022/08/10 03:50:47;;;;;;;15.25;4.85;;;;;;;14.50;86.33;102413.69;5074406;28;20021;-73
2022/08/10 03:53:13;;;;;;;13.63;4.68;;;;;;;14.49;86.21;102420.09;5073156;28;20494;-73
2022/08/10 03:55:39;;;;;;;16.17;5.30;;;;;;;14.46;86.20;102414.00;5073029;28;20044;-73
2022/08/10 03:58:04;;;;;;;13.60;4.97;;;;;;;14.46;86.04;102422.13;5074177;28;20109;-73
2022/08/10 04:00:33;;;;;;;13.13;4.63;;;;;;;14.45;86.28;102420.38;5074026;28;20021;-73
2022/08/10 04:03:03;;;;;;;14.70;5.07;;;;;;;14.43;86.37;102425.88;5074290;28;20031;-73
2022/08/10 04:05:29;;;;;;;15.88;5.65;;;;;;;14.43;86.54;102416.91;5074122;28;20025;-73
2022/08/10 04:07:54;;;;;;;14.70;5.03;;;;;;;14.42;86.54;102423.28;5074392;28;20024;-73
2022/08/10 04:10:20;;;;;;;18.67;5.25;;;;;;;14.41;86.67;102416.16;5073991;28;20133;-73
2022/08/10 04:12:45;;;;;;;14.80;5.25;;;;;;;14.39;86.20;102418.06;5072848;28;20031;-73
2022/08/10 04:15:10;;;;;;;14.02;5.10;;;;;;;14.37;86.88;102418.16;5072537;28;20024;-73
2022/08/10 04:17:35;;;;;;;15.82;4.90;;;;;;;14.37;87.03;102418.16;5073961;28;20508;-73
2022/08/10 04:20:04;;;;;;;15.82;5.75;;;;;;;14.38;87.33;102417.22;5073749;28;20038;-73
2022/08/10 04:22:32;;;;;;;16.65;5.15;;;;;;;14.38;87.23;102422.63;5072869;28;20034;-73
2022/08/10 04:25:02;;;;;;;16.00;4.82;;;;;;;14.37;87.25;102420.00;5073732;28;20036;-72
2022/08/10 04:27:28;;;;;;;16.30;5.93;;;;;;;14.38;87.54;102425.31;5063893;28;20102;-72
2022/08/10 04:29:54;;;;;;;17.23;5.72;;;;;;;14.37;87.54;102429.00;5066493;28;20136;-72
2022/08/10 04:32:21;;;;;;;18.80;5.68;;;;;;;14.34;87.28;102427.34;5072222;28;20020;-72
2022/08/10 04:34:47;;;;;;;17.98;5.65;;;;;;;14.33;87.64;102428.31;5073504;28;20105;-72
2022/08/10 04:37:16;;;;;;;16.00;5.53;;;;;;;14.31;87.70;102423.97;5073865;28;20372;-72
2022/08/10 04:39:42;;;;;;;13.15;4.75;;;;;;;14.31;87.45;102422.13;5072217;28;20507;-72
2022/08/10 04:42:08;;;;;;;19.63;6.10;;;;;;;14.29;87.82;102421.38;5073539;28;20028;-72
2022/08/10 04:44:33;;;;;;;13.90;5.22;;;;;;;14.30;88.19;102427.63;5073416;28;20479;-72
2022/08/10 04:46:58;;;;;;;14.00;4.75;;;;;;;14.31;87.79;102423.97;5073082;28;20376;-72
2022/08/10 04:49:24;;;;;;;16.33;5.65;;;;;;;14.31;88.02;102419.44;5071973;28;20031;-72
2022/08/10 04:51:49;;;;;;;15.43;5.25;;;;;;;14.30;88.27;102423.09;5072064;28;20173;-72
2022/08/10 04:54:14;;;;;;;16.80;6.38;;;;;;;14.29;88.29;102418.66;5073259;28;20119;-72
2022/08/10 04:56:40;;;;;;;15.45;5.43;;;;;;;14.30;88.48;102414.97;5073139;28;20032;-72
2022/08/10 04:59:08;;;;;;;15.32;5.40;;;;;;;14.30;88.52;102420.38;5073165;28;20476;-72
2022/08/10 05:01:35;;;;;;;16.00;5.90;;;;;;;14.30;88.52;102414.97;5071491;28;20032;-72
2022/08/10 05:04:01;;;;;;;16.40;5.68;;;;;;;14.32;89.08;102414.91;5073023;28;20025;-72
2022/08/10 05:06:26;;;;;;;15.35;5.25;;;;;;;14.33;89.13;102412.09;5071778;28;20021;-72
2022/08/10 05:08:51;;;;;;;15.13;6.13;;;;;;;14.38;89.34;102417.22;5071639;28;20043;-72
2022/08/10 05:11:17;;;;;;;18.20;6.30;;;;;;;14.42;89.79;102410.63;5072826;28;20115;-72
2022/08/10 05:13:42;;;;;;;16.70;6.38;;;;;;;14.48;90.01;102409.34;5072796;28;20499;-72
2022/08/10 05:16:07;;;;;;;16.02;5.20;;;;;;;14.54;90.06;102411.69;5072572;28;20048;-72
2022/08/10 05:18:32;;;;;;;16.45;5.57;;;;;;;14.56;89.77;102415.13;5071455;28;20025;-72
2022/08/10 05:20:58;;;;;;;16.45;5.95;;;;;;;14.62;90.11;102411.19;5071432;28;20472;-72
2022/08/10 05:23:23;;;;;;;15.73;5.43;;;;;;;14.66;90.23;102410.03;5072570;28;20021;-72
2022/08/10 05:25:48;;;;;;;16.15;6.00;;;;;;;14.72;90.01;102412.31;5072570;28;20111;-72
2022/08/10 05:28:13;;;;;;;18.38;6.18;;;;;;;14.79;89.84;102415.50;5072578;28;20020;-72
2022/08/10 05:30:39;;;;;;;16.23;5.30;;;;;;;14.84;90.60;102418.75;5072317;28;20056;-72
2022/08/10 05:33:04;;;;;;;16.88;5.95;;;;;;;14.92;90.29;102424.53;5072441;28;20035;-72
2022/08/10 05:35:30;;;;;;;20.38;7.47;;;;;;;14.97;90.29;102432.34;5071235;28;20195;-72
2022/08/10 05:37:57;;;;;;;19.08;6.68;;;;;;;15.05;89.79;102423.72;5072279;28;20020;-72
2022/08/10 05:40:23;;;;;;;16.60;5.68;;;;;;;15.11;89.87;102423.28;5072175;28;20098;-72
2022/08/10 05:42:49;;;;;;;17.33;6.32;;;;;;;15.18;89.76;102427.31;5072456;28;20028;-72
2022/08/10 05:45:24;;;;;;;17.35;5.82;;;;;;;15.26;89.35;102435.81;5070838;28;20016;-72
2022/08/10 05:47:50;;;;;;;19.23;7.40;;;;;;;15.31;88.53;102425.50;5072342;28;20028;-72
2022/08/10 05:50:17;;;;;;;26.10;7.75;;;;;;;15.37;87.93;102427.81;5072235;28;20074;-72
2022/08/10 05:52:43;;;;;;;17.08;6.63;;;;;;;15.44;88.22;102425.53;5072290;28;20043;-72
2022/08/10 05:55:10;;;;;;;18.30;6.55;;;;;;;15.51;88.01;102426.84;5072099;28;20029;-74
2022/08/10 05:57:35;;;;;;;22.73;7.28;;;;;;;15.58;88.60;102426.44;5072106;28;20077;-73
2022/08/10 06:00:07;;;;;;;18.38;6.78;;;;;;;15.63;89.68;102425.13;5071850;28;20619;-73
2022/08/10 06:02:37;;;;;;;18.85;7.70;;;;;;;15.69;87.83;102429.25;5072066;28;20027;-73
2022/08/10 06:05:06;;;;;;;17.55;6.63;;;;;;;15.73;87.80;102428.94;5072095;28;20025;-73
2022/08/10 06:07:33;;;;;;;18.55;6.50;;;;;;;15.80;87.97;102431.25;5070980;28;20021;-73
2022/08/10 06:10:00;;;;;;;17.60;6.82;;;;;;;15.86;88.04;102428.97;5070627;28;20026;-73
2022/08/10 06:12:27;;;;;;;19.83;7.45;;;;;;;15.91;87.94;102423.22;5071986;28;20085;-73
2022/08/10 06:15:00;;;;;;;17.90;7.10;;;;;;;15.98;87.42;102429.94;5070457;28;20049;-73
2022/08/10 06:17:27;;;;;;;18.25;7.60;;;;;;;16.05;87.68;102427.69;5072099;28;20522;-73
2022/08/10 06:19:54;;;;;;;20.17;7.15;;;;;;;16.09;85.99;102423.75;5071854;28;20024;-73
2022/08/10 06:22:19;;;;;;;20.30;7.60;;;;;;;16.15;85.54;102428.75;5072051;28;20535;-73
2022/08/10 06:24:45;;;;;;;20.55;8.68;;;;;;;16.22;86.00;102434.59;5071818;28;20026;-73
2022/08/10 06:27:12;;;;;;;18.25;7.57;;;;;;;16.28;85.90;102431.44;5070533;28;20387;-74
2022/08/10 06:29:40;;;;;;;21.95;8.18;;;;;;;16.33;85.43;102431.97;5071591;28;20020;-74
2022/08/10 06:32:08;;;;;;;22.15;8.05;;;;;;;16.38;83.38;102432.53;5072032;28;20480;-74
2022/08/10 06:34:40;;;;;;;19.38;8.13;;;;;;;16.47;84.56;102433.69;5071697;28;20048;-74
2022/08/10 06:37:07;;;;;;;19.10;8.40;;;;;;;16.54;84.06;102436.81;5071938;28;20457;-74
2022/08/10 06:39:34;;;;;;;19.75;8.10;;;;;;;16.59;84.00;102430.06;5071797;28;20480;-74
2022/08/10 06:42:11;;;;;;;19.02;7.97;;;;;;;16.66;83.30;102426.91;5072120;28;20021;-74
2022/08/10 06:44:45;;;;;;;19.52;7.78;;;;;;;16.71;82.46;102428.28;5071671;28;20082;-74
2022/08/10 06:47:12;;;;;;;19.02;7.78;;;;;;;16.76;80.76;102431.53;5071619;28;20028;-74
2022/08/10 06:49:37;;;;;;;20.02;8.40;;;;;;;16.84;82.38;102430.06;5072024;28;20028;-74
2022/08/10 06:52:07;;;;;;;20.10;8.23;;;;;;;16.88;82.33;102427.06;5074239;28;20480;-74
2022/08/10 06:54:32;;;;;;;;;;;;;;;16.95;82.50;102432.91;5075940;28;20068;-74
2022/08/10 06:57:00;;;;;;;19.45;7.97;;;;;;;17.00;81.93;102427.09;5075418;28;19943;-74
2022/08/10 06:59:37;;;;;;;21.30;8.10;;;;;;;17.05;81.81;102430.38;5073910;28;20078;-74
2022/08/10 07:02:08;;;;;;;20.05;8.25;;;;;;;17.12;81.30;102437.91;5075274;28;20035;-74
2022/08/10 07:04:44;;;;;;;19.23;8.57;;;;;;;17.17;81.12;102440.28;5075226;28;20373;-74
2022/08/10 07:07:14;;;;;;;18.65;7.68;;;;;;;17.22;79.66;102439.94;5075413;28;20028;-74
2022/08/10 07:09:40;;;;;;;23.17;7.70;;;;;;;17.27;79.52;102446.75;5075131;28;20404;-74
2022/08/10 07:12:07;;;;;;;16.27;6.82;;;;;;;17.34;78.77;102438.16;5075296;28;20468;-74
2022/08/10 07:14:36;;;;;;;19.67;7.20;;;;;;;17.39;80.82;102449.50;5074964;28;20120;-74
2022/08/10 07:17:03;;;;;;;13.40;4.75;;;;;;;17.41;77.20;102447.53;5073897;28;20038;-74
2022/08/10 07:19:31;;;;;;;19.30;7.03;;;;;;;17.47;78.61;102433.50;5073646;28;20025;-74
2022/08/10 07:21:58;;;;;;;18.90;7.45;;;;;;;17.56;79.50;102440.91;5073773;28;20020;-74
2022/08/10 07:24:25;;;;;;;21.83;6.18;;;;;;;17.57;74.93;102445.38;5073543;28;20035;-74
2022/08/10 07:26:54;;;;;;;16.25;5.78;;;;;;;17.61;75.15;102438.72;5074825;28;20025;-74
2022/08/10 07:29:25;;;;;;;18.45;7.15;;;;;;;17.67;76.81;102450.94;5074931;28;20032;-74
2022/08/10 07:31:51;;;;;;;17.73;6.93;;;;;;;17.74;76.98;102444.03;5074526;28;20094;-74
2022/08/10 07:34:19;;;;;;;17.70;7.25;;;;;;;17.82;76.95;102441.59;5074724;28;20034;-74
2022/08/10 07:36:46;;;;;;;17.05;6.68;;;;;;;17.89;77.17;102446.53;5074788;28;20111;-74
2022/08/10 07:39:12;;;;;;;16.88;6.35;;;;;;;17.88;72.29;102440.25;5075114;28;20097;-74
2022/08/10 07:41:41;;;;;;;16.88;6.53;;;;;;;17.92;72.81;102449.06;5073407;28;20052;-74
2022/08/10 07:44:10;;;;;;;18.15;6.38;;;;;;;17.98;72.77;102451.31;5074476;28;20361;-74
2022/08/10 07:46:39;;;;;;;12.38;4.80;;;;;;;18.07;74.50;102449.69;5074627;28;20033;-74
2022/08/10 07:49:08;;;;;;;;;;;;;;;18.14;75.29;102440.03;5075026;28;20029;-74
2022/08/10 07:51:35;;;;;;;12.77;4.93;;;;;;;18.16;70.86;102438.94;5074454;28;20019;-74
2022/08/10 07:54:04;;;;;;;14.88;5.50;;;;;;;18.27;73.29;102445.38;5074410;28;20332;-74
2022/08/10 07:56:31;;;;;;;17.02;5.78;;;;;;;18.28;69.63;102441.66;5074317;28;20107;-74
2022/08/10 07:59:02;;;;;;;20.58;6.28;;;;;;;18.33;72.11;102442.13;5074208;28;20028;-74
2022/08/10 08:01:31;;;;;;;18.95;6.70;;;;;;;18.34;70.70;102439.28;5072768;28;20020;-74
2022/08/10 08:04:00;;;;;;;20.80;6.78;;;;;;;18.43;72.24;102450.44;5074348;28;20074;-74
2022/08/10 08:06:26;;;;;;;18.10;6.47;;;;;;;18.49;69.87;102456.25;5074288;28;20108;-74
2022/08/10 08:08:52;;;;;;;16.77;7.00;;;;;;;18.61;73.99;102454.38;5072802;28;20024;-74
2022/08/10 08:11:19;;;;;;;13.02;4.63;;;;;;;18.62;70.21;102452.50;5072625;28;20373;-74
2022/08/10 08:13:45;;;;;;;16.10;6.57;;;;;;;18.69;71.07;102451.03;5072904;28;20031;-74
2022/08/10 08:16:12;;;;;;;18.70;6.90;;;;;;;18.80;72.59;102451.00;5072687;28;20025;-74
2022/08/10 08:18:38;;;;;;;20.52;7.53;;;;;;;18.85;70.64;102446.03;5074024;28;20020;-74
2022/08/10 08:21:04;;;;;;;16.58;6.20;;;;;;;18.89;69.28;102451.25;5073982;28;20074;-74
2022/08/10 08:23:31;;;;;;;12.93;5.22;;;;;;;18.96;70.58;102447.00;5072665;28;20012;-74
2022/08/10 08:25:57;;;;;;;16.35;5.47;;;;;;;18.97;68.27;102446.03;5072454;28;20575;-74
2022/08/10 08:28:25;;;;;;;18.20;6.65;;;;;;;19.09;69.38;102449.56;5073837;28;20029;-74
2022/08/10 08:30:52;;;;;;;17.05;7.03;;;;;;;19.20;70.99;102461.31;5073371;28;20044;-74
2022/08/10 08:33:18;;;;;;;13.77;5.35;;;;;;;19.24;69.43;102455.59;5073916;28;20055;-74
2022/08/10 08:35:44;;;;;;;16.73;6.07;;;;;;;19.34;69.08;102451.97;5073751;28;20111;-74
2022/08/10 08:38:12;;;;;;;15.73;6.45;;;;;;;19.41;69.05;102446.84;5073639;28;20063;-74
2022/08/10 08:40:41;;;;;;;12.20;4.50;;;;;;;19.42;68.21;102443.13;5073474;28;20033;-74
2022/08/10 08:43:36;;;;;;;15.18;5.85;;;;;;;19.50;70.45;102437.88;5072200;28;20111;-74
2022/08/10 08:46:12;;;;;;;19.25;7.65;;;;;;;19.66;70.33;102444.72;5073850;28;20116;-74
2022/08/10 08:49:11;;;;;;;14.20;5.68;;;;;;;19.65;70.56;102442.97;5073182;28;20028;-74
2022/08/10 08:51:46;;;;;;;18.17;7.25;;;;;;;19.68;69.33;102438.13;5073296;28;20034;-74
2022/08/10 08:54:45;;;;;;;18.85;7.95;;;;;;;19.80;69.53;102436.22;5071993;28;20051;-74
2022/08/10 08:57:47;;;;;;;16.40;6.20;;;;;;;19.84;69.71;102445.88;5073185;28;20070;-74
2022/08/10 09:00:42;;;;;;;22.10;9.13;;;;;;;20.01;68.84;102446.25;5071708;28;20120;-74
2022/08/10 09:03:44;;;;;;;18.60;7.70;;;;;;;20.08;69.82;102444.72;5053140;28;20393;-74
2022/08/10 09:06:12;;;;;;;17.00;5.82;;;;;;;20.13;68.25;102436.09;5053183;28;20028;-74
2022/08/10 09:08:40;;;;;;;19.65;7.75;;;;;;;20.22;67.99;102436.16;5052990;28;20021;-74
2022/08/10 09:11:12;;;;;;;16.13;5.90;;;;;;;20.20;68.51;102426.38;5052906;28;20021;-74
2022/08/10 09:13:43;;;;;;;19.52;7.72;;;;;;;20.22;68.17;102425.25;5052299;28;20029;-74
2022/08/10 09:16:31;;;;;;;21.95;6.95;;;;;;;20.30;68.72;102426.41;5052918;28;20031;-74
2022/08/10 09:19:05;;;;;;;17.20;5.18;;;;;;;20.27;67.75;102421.25;5052808;28;20068;-74
2022/08/10 09:21:50;;;;;;;16.27;4.85;;;;;;;20.34;69.10;102425.16;5051423;28;20111;-74
2022/08/10 09:24:34;;;;;;;17.38;5.90;;;;;;;20.39;67.35;102422.84;5065690;28;20119;-72
2022/08/10 09:27:06;;;;;;;15.10;6.07;;;;;;;20.40;67.41;102422.72;5071300;28;20374;-74
2022/08/10 09:29:51;;;;;;;9.90;3.95;;;;;;;20.39;67.04;102407.31;5071199;28;20078;-74
2022/08/10 09:32:29;;;;;;;12.52;4.55;;;;;;;20.50;66.98;102410.94;5071109;28;20127;-74
2022/08/10 09:35:16;;;;;;;13.23;4.93;;;;;;;20.51;66.23;102410.78;5072483;28;20025;-74
2022/08/10 09:37:50;;;;;;;11.32;3.75;;;;;;;20.54;66.23;102417.84;5072630;28;20062;-74
2022/08/10 09:40:25;;;;;;;11.95;4.75;;;;;;;20.65;66.06;102408.69;5071064;28;20436;-74
2022/08/10 09:43:05;;;;;;;10.65;4.07;;;;;;;20.68;67.14;102413.91;5070904;28;20508;-74
2022/08/10 09:46:05;;;;;;;13.18;5.15;;;;;;;20.74;66.44;102410.59;5070999;28;20044;-74
2022/08/10 09:48:40;;;;;;;10.45;4.00;;;;;;;20.73;66.39;102401.56;5071029;28;20113;-74
2022/08/10 09:51:33;;;;;;;18.48;5.40;;;;;;;20.78;64.85;102407.44;5070803;28;20028;-74
2022/08/10 09:54:20;;;;;;;15.55;5.53;;;;;;;20.92;65.10;102406.19;5072197;28;20082;-74
2022/08/10 09:56:52;;;;;;;16.63;5.38;;;;;;;20.95;64.51;102394.97;5070882;28;20025;-74
2022/08/10 09:59:46;;;;;;;10.63;4.20;;;;;;;20.93;65.58;102407.88;5072041;28;20055;-74
2022/08/10 10:02:26;;;;;;;17.73;5.22;;;;;;;21.01;64.56;102395.38;5072309;28;20099;-74
2022/08/10 10:05:24;;;;;;;11.15;4.30;;;;;;;21.03;64.02;102394.22;5072295;28;20380;-73
2022/08/10 10:08:27;;;;;;;10.30;3.72;;;;;;;21.09;63.97;102392.78;5072127;28;20024;-75
2022/08/10 10:11:03;;;;;;;12.50;4.40;;;;;;;21.18;64.17;102377.41;5072013;28;20401;-74
2022/08/10 10:13:50;;;;;;;13.70;5.47;;;;;;;21.30;63.81;102377.09;5070717;28;20024;-74
2022/08/10 10:16:43;;;;;;;12.02;4.60;;;;;;;21.35;63.55;102378.50;5069670;28;20038;-74
2022/08/10 10:19:23;;;;;;;12.73;4.85;;;;;;;21.43;62.64;102370.44;5070478;28;20036;-74
2022/08/10 10:21:50;;;;;;;14.48;5.25;;;;;;;21.55;63.86;102368.44;5071466;28;20491;-74
2022/08/10 10:24:31;;;;;;;7.72;3.60;;;;;;;21.52;61.78;102366.84;5071672;28;20028;-74
2022/08/10 10:27:03;;;;;;;15.40;5.05;;;;;;;21.66;60.90;102364.69;5075839;28;20038;-74
2022/08/10 10:29:45;;;;;;;13.13;4.53;;;;;;;21.62;62.74;102364.94;5075397;28;20058;-74
2022/08/10 10:32:13;;;;;;;10.98;4.25;;;;;;;21.69;62.21;102354.28;5074686;28;20162;-74
2022/08/10 10:35:15;;;;;;;13.50;4.38;;;;;;;21.82;60.11;102353.97;5073632;28;20416;-74
2022/08/10 10:37:43;;;;;;;10.13;4.18;;;;;;;21.76;61.32;102355.41;5072517;28;20071;-74
2022/08/10 10:40:11;;;;;;;9.77;3.88;;;;;;;21.80;63.31;102354.09;5074116;28;20119;-74
2022/08/10 10:42:42;;;;;;;10.90;3.72;;;;;;;21.88;59.03;102358.81;5075320;28;20396;-74
2022/08/10 10:45:18;;;;;;;10.60;4.03;;;;;;;21.93;59.94;102351.03;5075397;28;20035;-74
2022/08/10 10:48:21;;;;;;;10.90;4.45;;;;;;;22.04;59.92;102343.63;5075584;28;20048;-74
2022/08/10 10:50:59;;;;;;;12.07;4.78;;;;;;;22.18;56.23;102337.63;5074404;28;20031;-74
2022/08/10 10:53:57;;;;;;;13.20;4.30;;;;;;;22.22;58.73;102344.53;5075638;28;20028;-74
2022/08/10 10:56:34;;;;;;;11.18;4.40;;;;;;;22.25;57.03;102338.75;5075007;28;20040;-74
2022/08/10 10:59:06;;;;;;;9.68;4.05;;;;;;;22.16;59.10;102334.19;5075450;28;20029;-74
2022/08/10 11:01:51;;;;;;;10.15;4.25;;;;;;;22.26;56.76;102328.66;5075250;28;20028;-74
2022/08/10 11:04:26;;;;;;;11.98;4.15;;;;;;;22.21;57.68;102325.50;5075300;28;20509;-74
2022/08/10 11:07:13;;;;;;;9.02;3.92;;;;;;;22.26;57.75;102328.66;5075425;28;20026;-74
2022/08/10 11:09:44;;;;;;;10.32;4.35;;;;;;;22.51;53.69;102318.88;5075240;28;20032;-74
2022/08/10 11:12:27;;;;;;;14.80;4.60;;;;;;;22.60;56.30;102319.81;5074096;28;20085;-74
2022/08/10 11:15:21;;;;;;;11.32;4.43;;;;;;;22.68;54.45;102320.75;5074998;28;20028;-74
2022/08/10 11:18:01;;;;;;;14.35;4.28;;;;;;;22.71;55.55;102316.84;5043776;28;20557;-74
2022/08/10 11:20:53;;;;;;;9.52;4.18;;;;;;;22.67;55.28;102305.31;5075125;28;20508;-74
2022/08/10 11:23:34;;;;;;;11.75;4.25;;;;;;;22.88;52.32;102300.53;5074913;28;20027;-74
2022/08/10 11:26:08;;;;;;;12.82;4.90;;;;;;;22.89;54.62;102310.47;5074942;28;20021;-74
2022/08/10 11:28:45;;;;;;;12.13;5.13;;;;;;;22.99;52.15;102298.41;5074964;28;20028;-74
2022/08/10 11:31:20;;;;;;;10.15;4.28;;;;;;;23.08;51.70;102306.69;5073050;28;20042;-74
2022/08/10 11:33:45;;;;;;;9.82;4.57;;;;;;;23.00;54.59;102300.13;5073419;28;20020;-74
2022/08/10 11:36:52;;;;;;;11.33;4.33;;;;;;;23.14;52.70;102306.94;5074395;28;20396;-74
2022/08/10 11:39:44;;;;;;;11.73;4.82;;;;;;;23.15;54.39;102305.91;5044631;28;20317;-74